Flight Track Log - Related Links

Times and Time Zones

All times are in EDT time to prevent confusion due to time zone crossing. See the AWE2180 flight status page for this flight to view local times or setup timezone preferences in your user account.

Time Position Orientation Groundspeed Altitude Reporting Facility
EDT Latitude Longitude Course Direction KTS MPH feet Rate Location/Type
Fri 06:13:45 PM 38.8167 -77.0333 90° East 139 160 2,000  Level Potomac TRACON
Fri 06:15:00 PM 38.9167 -76.7466 90° East  Level FlightAware Approximate
Fri 06:15:43 PM 38.7428 -76.9756 149° Southeast 168 193 6,700  Level Washington Center
Fri 06:16:00 PM 38.9448 -76.6491 67° East  Level FlightAware Approximate
Fri 06:16:43 PM 38.8122 -76.9183 33° Northeast 148 170 9,700  Level Washington Center
Fri 06:17:00 PM 38.9751 -76.5496 72° East  Level FlightAware Approximate
Fri 06:17:43 PM 38.8836 -76.8611 32° Northeast 204 235 12,400  Level Washington Center
Fri 06:18:00 PM 38.9988 -76.4471 74° East  Level FlightAware Approximate
Fri 06:18:43 PM 38.9183 -76.7494 68° East 262 302 14,200  Level Washington Center
Fri 06:19:00 PM 39.0167 -76.3434 90° East  Level FlightAware Approximate
Fri 06:19:43 PM 38.9550 -76.6139 71° East 335 386 15,300  Level Washington Center
Fri 06:20:43 PM 38.9978 -76.4756 68° East 388 447 17,700 1,850 Climbing Washington Center
Fri 06:21:43 PM 39.0278 -76.3239 76° East 415 478 19,000 650 Climbing Washington Center
Fri 06:22:43 PM 39.0433 -76.1583 83° East 425 489 19,000  Level Washington Center
Fri 06:23:43 PM 39.0461 -76.0086 89° East 425 489 19,000  Level Washington Center
Fri 06:24:43 PM 39.0547 -75.8617 86° East 420 483 19,000  Level Washington Center
Fri 06:25:43 PM 39.0842 -75.7147 75° East 420 483 19,000  Level Washington Center
Fri 06:26:43 PM 39.1717 -75.5997 46° Northeast 418 481 19,000  Level Washington Center
Fri 06:27:43 PM 39.2633 -75.4925 42° Northeast 429 494 19,000  Level Washington Center
Fri 06:28:43 PM 39.3694 -75.3956 35° Northeast 434 499 19,000 -150 Level Washington Center
Fri 06:29:43 PM 39.4756 -75.3011 34° Northeast 450 518 18,700 -750 Descending Washington Center
Fri 06:30:43 PM 39.5753 -75.2092 35° Northeast 455 524 17,500 -850 Descending Washington Center
Fri 06:31:43 PM 39.6625 -75.1278 36° Northeast 442 509 17,000 -1,000 Descending Washington Center
Fri 06:32:43 PM 39.7767 -75.0300 33° Northeast 442 509 15,500 -1,450 Descending Washington Center
Fri 06:33:43 PM 39.8661 -74.9536 33° Northeast 442 509 14,100 -1,486 Descending Washington Center
Fri 06:34:32 PM 39.9500 -74.8667 38° Northeast 406 467 12,800 -1,486 Descending New York TRACON
Fri 06:35:32 PM 40.0167 -74.7500 53° Northeast 403 464 11,400 -1,350 Descending New York TRACON
Fri 06:36:32 PM 40.1000 -74.6500 43° Northeast 380 437 10,100 -730 Descending New York TRACON
Fri 06:37:27 PM 40.1667 -74.5667 44° Northeast 381 438 10,000 -100 Descending New York TRACON
Fri 06:38:32 PM 40.2333 -74.4500 53° Northeast 359 413 9,900 -864 Descending New York TRACON
Fri 06:39:32 PM 40.3000 -74.3667 44° Northeast 339 390 8,200 -1,450 Descending New York TRACON
Fri 06:40:32 PM 40.3667 -74.2833 44° Northeast 340 391 7,000 -950 Descending New York TRACON
Fri 06:41:32 PM 40.4500 -74.2000 37° Northeast 334 384 6,300 -1,091 Descending New York TRACON
Fri 06:42:33 PM 40.5167 -74.1333 37° Northeast 323 372 4,800 -1,150 Descending New York TRACON
Fri 06:43:32 PM 40.5833 -74.0667 37° Northeast 321 369 4,000 -421 Descending New York TRACON
Fri 06:44:27 PM 40.6667 -74.0500 North 313 360 4,000  Level New York TRACON
Fri 06:45:33 PM 40.7500 -74.0167 17° North 312 359 4,000  Level New York TRACON
Fri 06:46:27 PM 40.8167 -73.9500 37° Northeast 319 367 4,000 -402 Level New York TRACON
Fri 06:48:32 PM 40.9333 -73.8333 37° Northeast 240 276 2,800 -677 Descending New York TRACON
Fri 06:49:33 PM 40.9167 -73.7833 114° Southeast 169 194 1,900 -885 Descending New York TRACON

Login

Don't have an account? Register now (free) for customized features, flight alerts, and more!